sensor_id;sensor_type;location;lat;lon;timestamp;temperature;humidity
18581;DHT22;9420;50.876;7.012;2022-11-15T00:00:56;9.60;99.90
18581;DHT22;9420;50.876;7.012;2022-11-15T00:03:26;9.60;99.90
18581;DHT22;9420;50.876;7.012;2022-11-15T00:05:54;9.70;99.90
18581;DHT22;9420;50.876;7.012;2022-11-15T00:08:21;9.70;99.90
18581;DHT22;9420;50.876;7.012;2022-11-15T00:10:54;9.70;99.90
18581;DHT22;9420;50.876;7.012;2022-11-15T00:13:23;9.80;99.90
18581;DHT22;9420;50.876;7.012;2022-11-15T00:15:50;9.80;99.90
18581;DHT22;9420;50.876;7.012;2022-11-15T00:18:18;9.80;99.90
18581;DHT22;9420;50.876;7.012;2022-11-15T00:20:45;9.90;99.90
18581;DHT22;9420;50.876;7.012;2022-11-15T00:23:12;9.90;99.90
18581;DHT22;9420;50.876;7.012;2022-11-15T00:25:39;9.90;99.90
18581;DHT22;9420;50.876;7.012;2022-11-15T00:28:06;9.90;99.90
18581;DHT22;9420;50.876;7.012;2022-11-15T00:30:35;9.90;99.90
18581;DHT22;9420;50.876;7.012;2022-11-15T00:33:02;9.90;99.90
18581;DHT22;9420;50.876;7.012;2022-11-15T00:35:31;9.90;99.90
18581;DHT22;9420;50.876;7.012;2022-11-15T00:37:59;9.90;99.90
18581;DHT22;9420;50.876;7.012;2022-11-15T00:40:27;9.90;99.90
18581;DHT22;9420;50.876;7.012;2022-11-15T00:42:54;10.00;99.90
18581;DHT22;9420;50.876;7.012;2022-11-15T00:45:21;10.00;99.90
18581;DHT22;9420;50.876;7.012;2022-11-15T00:47:50;10.00;99.90
18581;DHT22;9420;50.876;7.012;2022-11-15T00:50:17;10.00;99.90
18581;DHT22;9420;50.876;7.012;2022-11-15T00:52:45;10.10;99.90
18581;DHT22;9420;50.876;7.012;2022-11-15T00:55:14;10.10;99.90
18581;DHT22;9420;50.876;7.012;2022-11-15T00:57:42;10.10;99.90
18581;DHT22;9420;50.876;7.012;2022-11-15T01:00:10;10.20;99.90
18581;DHT22;9420;50.876;7.012;2022-11-15T01:02:38;10.20;99.90
18581;DHT22;9420;50.876;7.012;2022-11-15T01:05:08;10.20;99.90
18581;DHT22;9420;50.876;7.012;2022-11-15T01:07:35;10.30;99.90
18581;DHT22;9420;50.876;7.012;2022-11-15T01:10:02;10.30;99.90
18581;DHT22;9420;50.876;7.012;2022-11-15T01:12:29;10.30;99.90
18581;DHT22;9420;50.876;7.012;2022-11-15T01:14:57;10.30;99.90
18581;DHT22;9420;50.876;7.012;2022-11-15T01:17:24;10.30;99.90
18581;DHT22;9420;50.876;7.012;2022-11-15T01:19:51;10.40;99.90
18581;DHT22;9420;50.876;7.012;2022-11-15T01:22:20;10.40;99.90
18581;DHT22;9420;50.876;7.012;2022-11-15T01:24:48;10.30;99.90
18581;DHT22;9420;50.876;7.012;2022-11-15T01:27:16;10.40;99.90
18581;DHT22;9420;50.876;7.012;2022-11-15T01:29:43;10.40;99.90
18581;DHT22;9420;50.876;7.012;2022-11-15T01:32:10;10.50;99.90
18581;DHT22;9420;50.876;7.012;2022-11-15T01:34:37;10.50;99.90
18581;DHT22;9420;50.876;7.012;2022-11-15T01:37:04;10.50;99.90
18581;DHT22;9420;50.876;7.012;2022-11-15T01:39:33;10.50;99.90
18581;DHT22;9420;50.876;7.012;2022-11-15T01:42:00;10.60;99.90
18581;DHT22;9420;50.876;7.012;2022-11-15T01:44:42;10.60;99.90
18581;DHT22;9420;50.876;7.012;2022-11-15T01:47:15;10.60;99.90
18581;DHT22;9420;50.876;7.012;2022-11-15T01:49:50;10.60;99.90
18581;DHT22;9420;50.876;7.012;2022-11-15T01:52:24;10.60;99.90
18581;DHT22;9420;50.876;7.012;2022-11-15T01:54:58;10.60;99.90
18581;DHT22;9420;50.876;7.012;2022-11-15T01:57:29;10.70;99.90
18581;DHT22;9420;50.876;7.012;2022-11-15T01:59:57;10.80;99.90
18581;DHT22;9420;50.876;7.012;2022-11-15T02:02:26;10.80;99.90
18581;DHT22;9420;50.876;7.012;2022-11-15T02:04:54;10.80;99.90
18581;DHT22;9420;50.876;7.012;2022-11-15T02:07:22;10.90;99.90
18581;DHT22;9420;50.876;7.012;2022-11-15T02:09:50;11.00;99.90
18581;DHT22;9420;50.876;7.012;2022-11-15T02:12:20;10.90;99.90
18581;DHT22;9420;50.876;7.012;2022-11-15T02:14:53;10.90;99.90
18581;DHT22;9420;50.876;7.012;2022-11-15T02:17:42;10.90;99.90
18581;DHT22;9420;50.876;7.012;2022-11-15T02:23:58;10.80;99.90
18581;DHT22;9420;50.876;7.012;2022-11-15T02:27:25;10.80;99.90
18581;DHT22;9420;50.876;7.012;2022-11-15T02:30:27;10.70;99.90
18581;DHT22;9420;50.876;7.012;2022-11-15T02:33:09;10.80;99.90
18581;DHT22;9420;50.876;7.012;2022-11-15T02:35:55;10.80;99.90
18581;DHT22;9420;50.876;7.012;2022-11-15T02:38:31;10.80;99.90
18581;DHT22;9420;50.876;7.012;2022-11-15T02:41:08;10.90;99.90
18581;DHT22;9420;50.876;7.012;2022-11-15T02:43:42;10.80;99.90
18581;DHT22;9420;50.876;7.012;2022-11-15T02:46:27;10.90;99.90
18581;DHT22;9420;50.876;7.012;2022-11-15T02:49:18;10.90;99.90
18581;DHT22;9420;50.876;7.012;2022-11-15T02:51:47;10.90;99.90
18581;DHT22;9420;50.876;7.012;2022-11-15T02:54:20;11.00;99.90
18581;DHT22;9420;50.876;7.012;2022-11-15T02:56:50;11.10;99.90
18581;DHT22;9420;50.876;7.012;2022-11-15T03:02:40;11.10;99.90
18581;DHT22;9420;50.876;7.012;2022-11-15T03:05:25;11.10;99.90
18581;DHT22;9420;50.876;7.012;2022-11-15T03:08:06;11.10;99.90
18581;DHT22;9420;50.876;7.012;2022-11-15T03:10:45;11.10;99.90
18581;DHT22;9420;50.876;7.012;2022-11-15T03:13:25;11.10;99.90
18581;DHT22;9420;50.876;7.012;2022-11-15T03:15:59;11.20;99.90
18581;DHT22;9420;50.876;7.012;2022-11-15T03:18:33;11.10;99.90
18581;DHT22;9420;50.876;7.012;2022-11-15T03:21:06;11.10;99.90
18581;DHT22;9420;50.876;7.012;2022-11-15T03:23:37;11.10;99.90
18581;DHT22;9420;50.876;7.012;2022-11-15T03:26:09;11.10;99.90
18581;DHT22;9420;50.876;7.012;2022-11-15T03:28:44;11.20;99.90
18581;DHT22;9420;50.876;7.012;2022-11-15T03:31:16;11.20;99.90
18581;DHT22;9420;50.876;7.012;2022-11-15T03:34:07;11.20;99.90
18581;DHT22;9420;50.876;7.012;2022-11-15T03:36:41;11.20;99.90
18581;DHT22;9420;50.876;7.012;2022-11-15T03:39:09;11.10;99.90
18581;DHT22;9420;50.876;7.012;2022-11-15T03:41:43;11.10;99.90
18581;DHT22;9420;50.876;7.012;2022-11-15T03:44:17;11.10;99.90
18581;DHT22;9420;50.876;7.012;2022-11-15T03:46:57;11.10;99.90
18581;DHT22;9420;50.876;7.012;2022-11-15T03:49:33;11.10;99.90
18581;DHT22;9420;50.876;7.012;2022-11-15T03:52:04;11.20;99.90
18581;DHT22;9420;50.876;7.012;2022-11-15T03:54:32;11.20;99.90
18581;DHT22;9420;50.876;7.012;2022-11-15T03:56:59;11.20;99.90
18581;DHT22;9420;50.876;7.012;2022-11-15T03:59:26;11.20;99.90
18581;DHT22;9420;50.876;7.012;2022-11-15T04:01:53;11.20;99.90
18581;DHT22;9420;50.876;7.012;2022-11-15T04:04:20;11.20;99.90
18581;DHT22;9420;50.876;7.012;2022-11-15T04:06:48;11.30;99.90
18581;DHT22;9420;50.876;7.012;2022-11-15T04:09:15;11.30;99.90
18581;DHT22;9420;50.876;7.012;2022-11-15T04:11:42;11.40;99.90
18581;DHT22;9420;50.876;7.012;2022-11-15T04:14:09;11.40;99.90
18581;DHT22;9420;50.876;7.012;2022-11-15T04:16:36;11.50;99.90
18581;DHT22;9420;50.876;7.012;2022-11-15T04:19:03;11.50;99.90
18581;DHT22;9420;50.876;7.012;2022-11-15T04:22:04;11.40;99.90
18581;DHT22;9420;50.876;7.012;2022-11-15T04:24:48;11.40;99.90
18581;DHT22;9420;50.876;7.012;2022-11-15T04:27:15;11.40;99.90
18581;DHT22;9420;50.876;7.012;2022-11-15T04:29:42;11.30;99.90
18581;DHT22;9420;50.876;7.012;2022-11-15T04:32:09;11.30;99.90
18581;DHT22;9420;50.876;7.012;2022-11-15T04:34:36;11.30;99.90
18581;DHT22;9420;50.876;7.012;2022-11-15T04:37:07;11.30;99.90
18581;DHT22;9420;50.876;7.012;2022-11-15T04:39:42;11.30;99.90
18581;DHT22;9420;50.876;7.012;2022-11-15T04:42:10;11.30;99.90
18581;DHT22;9420;50.876;7.012;2022-11-15T04:44:37;11.30;99.90
18581;DHT22;9420;50.876;7.012;2022-11-15T04:47:04;11.30;99.90
18581;DHT22;9420;50.876;7.012;2022-11-15T04:49:31;11.30;99.90
18581;DHT22;9420;50.876;7.012;2022-11-15T04:51:58;11.30;99.90
18581;DHT22;9420;50.876;7.012;2022-11-15T04:54:27;11.30;99.90
18581;DHT22;9420;50.876;7.012;2022-11-15T04:56:54;11.20;99.90
18581;DHT22;9420;50.876;7.012;2022-11-15T04:59:21;11.20;99.90
18581;DHT22;9420;50.876;7.012;2022-11-15T05:01:48;11.10;99.90
18581;DHT22;9420;50.876;7.012;2022-11-15T05:04:15;11.10;99.90
18581;DHT22;9420;50.876;7.012;2022-11-15T05:06:50;11.10;99.90
18581;DHT22;9420;50.876;7.012;2022-11-15T05:09:18;11.10;99.90
18581;DHT22;9420;50.876;7.012;2022-11-15T05:11:48;11.10;99.90
18581;DHT22;9420;50.876;7.012;2022-11-15T05:14:15;11.20;99.90
18581;DHT22;9420;50.876;7.012;2022-11-15T05:16:43;11.20;99.90
18581;DHT22;9420;50.876;7.012;2022-11-15T05:19:10;11.20;99.90
18581;DHT22;9420;50.876;7.012;2022-11-15T05:21:37;11.20;99.90
18581;DHT22;9420;50.876;7.012;2022-11-15T05:24:05;11.20;99.90
18581;DHT22;9420;50.876;7.012;2022-11-15T05:26:32;11.10;99.90
18581;DHT22;9420;50.876;7.012;2022-11-15T05:29:00;11.10;99.90
18581;DHT22;9420;50.876;7.012;2022-11-15T05:31:28;11.00;99.90
18581;DHT22;9420;50.876;7.012;2022-11-15T05:33:56;11.00;99.90
18581;DHT22;9420;50.876;7.012;2022-11-15T05:36:31;10.90;99.90
18581;DHT22;9420;50.876;7.012;2022-11-15T05:39:02;10.90;99.90
18581;DHT22;9420;50.876;7.012;2022-11-15T05:41:33;10.90;99.90
18581;DHT22;9420;50.876;7.012;2022-11-15T05:44:06;10.80;99.90
18581;DHT22;9420;50.876;7.012;2022-11-15T05:46:37;10.80;99.90
18581;DHT22;9420;50.876;7.012;2022-11-15T05:49:11;10.70;99.90
18581;DHT22;9420;50.876;7.012;2022-11-15T05:51:42;10.70;99.90
18581;DHT22;9420;50.876;7.012;2022-11-15T05:54:11;10.70;99.90
18581;DHT22;9420;50.876;7.012;2022-11-15T05:56:39;10.60;99.90
18581;DHT22;9420;50.876;7.012;2022-11-15T05:59:08;10.60;99.90
18581;DHT22;9420;50.876;7.012;2022-11-15T06:01:37;10.50;99.90
18581;DHT22;9420;50.876;7.012;2022-11-15T06:04:05;10.40;99.90
18581;DHT22;9420;50.876;7.012;2022-11-15T06:06:32;10.40;99.90
18581;DHT22;9420;50.876;7.012;2022-11-15T06:08:59;10.40;99.90
18581;DHT22;9420;50.876;7.012;2022-11-15T06:11:26;10.40;99.90
18581;DHT22;9420;50.876;7.012;2022-11-15T06:13:53;10.40;99.90
18581;DHT22;9420;50.876;7.012;2022-11-15T06:16:22;10.40;99.90
18581;DHT22;9420;50.876;7.012;2022-11-15T06:18:49;10.30;99.90
18581;DHT22;9420;50.876;7.012;2022-11-15T06:21:16;10.30;99.90
18581;DHT22;9420;50.876;7.012;2022-11-15T06:23:43;10.30;99.90
18581;DHT22;9420;50.876;7.012;2022-11-15T06:26:10;10.20;99.90
18581;DHT22;9420;50.876;7.012;2022-11-15T06:28:37;10.20;99.90
18581;DHT22;9420;50.876;7.012;2022-11-15T06:31:05;10.10;99.90
18581;DHT22;9420;50.876;7.012;2022-11-15T06:33:35;10.00;99.90
18581;DHT22;9420;50.876;7.012;2022-11-15T06:36:03;10.00;99.90
18581;DHT22;9420;50.876;7.012;2022-11-15T06:38:31;10.00;99.90
18581;DHT22;9420;50.876;7.012;2022-11-15T06:41:01;9.90;99.90
18581;DHT22;9420;50.876;7.012;2022-11-15T06:43:29;9.90;99.90
18581;DHT22;9420;50.876;7.012;2022-11-15T06:45:58;9.80;99.90
18581;DHT22;9420;50.876;7.012;2022-11-15T06:48:25;9.80;99.90
18581;DHT22;9420;50.876;7.012;2022-11-15T06:50:55;9.70;99.90
18581;DHT22;9420;50.876;7.012;2022-11-15T06:53:24;9.70;99.90
18581;DHT22;9420;50.876;7.012;2022-11-15T06:55:52;9.60;99.90
18581;DHT22;9420;50.876;7.012;2022-11-15T06:58:21;9.60;99.90
18581;DHT22;9420;50.876;7.012;2022-11-15T07:00:48;9.50;99.90
18581;DHT22;9420;50.876;7.012;2022-11-15T07:03:15;9.40;99.90
18581;DHT22;9420;50.876;7.012;2022-11-15T07:05:47;9.50;99.90
18581;DHT22;9420;50.876;7.012;2022-11-15T07:08:20;9.50;99.90
18581;DHT22;9420;50.876;7.012;2022-11-15T07:10:48;9.50;99.90
18581;DHT22;9420;50.876;7.012;2022-11-15T07:13:16;9.50;99.90
18581;DHT22;9420;50.876;7.012;2022-11-15T07:15:43;9.60;99.90
18581;DHT22;9420;50.876;7.012;2022-11-15T07:18:10;9.50;99.90
18581;DHT22;9420;50.876;7.012;2022-11-15T07:20:37;9.40;99.90
18581;DHT22;9420;50.876;7.012;2022-11-15T07:23:05;9.50;99.90
18581;DHT22;9420;50.876;7.012;2022-11-15T07:25:34;9.50;99.90
18581;DHT22;9420;50.876;7.012;2022-11-15T07:28:01;9.60;99.90
18581;DHT22;9420;50.876;7.012;2022-11-15T07:30:29;9.60;99.90
18581;DHT22;9420;50.876;7.012;2022-11-15T07:32:57;9.70;99.90
18581;DHT22;9420;50.876;7.012;2022-11-15T07:35:26;9.90;99.90
18581;DHT22;9420;50.876;7.012;2022-11-15T07:37:56;10.00;99.90
18581;DHT22;9420;50.876;7.012;2022-11-15T07:40:24;10.00;99.90
18581;DHT22;9420;50.876;7.012;2022-11-15T07:42:58;10.10;99.90
18581;DHT22;9420;50.876;7.012;2022-11-15T07:45:26;10.10;99.90
18581;DHT22;9420;50.876;7.012;2022-11-15T07:47:54;10.20;99.90
18581;DHT22;9420;50.876;7.012;2022-11-15T07:50:23;10.30;99.90
18581;DHT22;9420;50.876;7.012;2022-11-15T07:52:54;10.30;99.90
18581;DHT22;9420;50.876;7.012;2022-11-15T07:55:22;10.50;99.90
18581;DHT22;9420;50.876;7.012;2022-11-15T07:57:49;10.50;99.90
18581;DHT22;9420;50.876;7.012;2022-11-15T08:00:18;10.40;99.90
18581;DHT22;9420;50.876;7.012;2022-11-15T08:02:46;10.50;99.90
18581;DHT22;9420;50.876;7.012;2022-11-15T08:05:13;10.50;99.90
18581;DHT22;9420;50.876;7.012;2022-11-15T08:07:41;10.50;99.90
18581;DHT22;9420;50.876;7.012;2022-11-15T08:10:08;10.70;99.90
18581;DHT22;9420;50.876;7.012;2022-11-15T08:12:37;10.70;99.90
18581;DHT22;9420;50.876;7.012;2022-11-15T08:15:04;10.70;99.90
18581;DHT22;9420;50.876;7.012;2022-11-15T08:17:33;10.70;99.90
18581;DHT22;9420;50.876;7.012;2022-11-15T08:20:01;10.70;99.90
18581;DHT22;9420;50.876;7.012;2022-11-15T08:22:28;10.70;99.90
18581;DHT22;9420;50.876;7.012;2022-11-15T08:24:56;10.70;99.90
18581;DHT22;9420;50.876;7.012;2022-11-15T08:27:23;10.70;99.90
18581;DHT22;9420;50.876;7.012;2022-11-15T08:29:50;10.80;99.90
18581;DHT22;9420;50.876;7.012;2022-11-15T08:32:17;10.80;99.90
18581;DHT22;9420;50.876;7.012;2022-11-15T08:34:45;10.80;99.90
18581;DHT22;9420;50.876;7.012;2022-11-15T08:37:12;10.80;99.90
18581;DHT22;9420;50.876;7.012;2022-11-15T08:39:40;10.80;99.90
18581;DHT22;9420;50.876;7.012;2022-11-15T08:42:07;10.90;99.90
18581;DHT22;9420;50.876;7.012;2022-11-15T08:44:33;11.00;99.90
18581;DHT22;9420;50.876;7.012;2022-11-15T08:47:01;11.10;99.90
18581;DHT22;9420;50.876;7.012;2022-11-15T08:49:28;11.10;99.90
18581;DHT22;9420;50.876;7.012;2022-11-15T08:51:56;11.10;99.90
18581;DHT22;9420;50.876;7.012;2022-11-15T08:54:23;11.20;99.90
18581;DHT22;9420;50.876;7.012;2022-11-15T08:56:50;11.30;99.90
18581;DHT22;9420;50.876;7.012;2022-11-15T08:59:17;11.30;99.90
18581;DHT22;9420;50.876;7.012;2022-11-15T09:01:44;11.30;99.90
18581;DHT22;9420;50.876;7.012;2022-11-15T09:04:11;11.40;99.90
18581;DHT22;9420;50.876;7.012;2022-11-15T09:06:39;11.50;99.90
18581;DHT22;9420;50.876;7.012;2022-11-15T09:09:07;11.50;99.90
18581;DHT22;9420;50.876;7.012;2022-11-15T09:11:34;11.60;99.90
18581;DHT22;9420;50.876;7.012;2022-11-15T09:14:01;11.60;99.90
18581;DHT22;9420;50.876;7.012;2022-11-15T09:16:30;11.70;99.90
18581;DHT22;9420;50.876;7.012;2022-11-15T09:18:57;11.70;99.90
18581;DHT22;9420;50.876;7.012;2022-11-15T09:21:24;11.70;99.90
18581;DHT22;9420;50.876;7.012;2022-11-15T09:23:51;11.80;99.90
18581;DHT22;9420;50.876;7.012;2022-11-15T09:26:20;11.80;99.90
18581;DHT22;9420;50.876;7.012;2022-11-15T09:28:47;11.90;99.90
18581;DHT22;9420;50.876;7.012;2022-11-15T09:31:14;12.00;99.90
18581;DHT22;9420;50.876;7.012;2022-11-15T09:33:43;12.00;99.90
18581;DHT22;9420;50.876;7.012;2022-11-15T09:36:12;12.10;99.90
18581;DHT22;9420;50.876;7.012;2022-11-15T09:38:39;12.30;99.90
18581;DHT22;9420;50.876;7.012;2022-11-15T09:41:52;12.50;99.90
18581;DHT22;9420;50.876;7.012;2022-11-15T09:44:41;12.60;99.90
18581;DHT22;9420;50.876;7.012;2022-11-15T09:47:37;12.70;99.90
18581;DHT22;9420;50.876;7.012;2022-11-15T09:50:15;12.80;99.90
18581;DHT22;9420;50.876;7.012;2022-11-15T09:52:46;12.90;99.90
18581;DHT22;9420;50.876;7.012;2022-11-15T09:55:15;13.00;99.90
18581;DHT22;9420;50.876;7.012;2022-11-15T09:57:54;12.90;99.90
18581;DHT22;9420;50.876;7.012;2022-11-15T10:00:33;13.00;99.90
18581;DHT22;9420;50.876;7.012;2022-11-15T10:03:11;12.90;99.90
18581;DHT22;9420;50.876;7.012;2022-11-15T10:05:42;12.90;99.90
18581;DHT22;9420;50.876;7.012;2022-11-15T10:08:20;13.00;99.90
18581;DHT22;9420;50.876;7.012;2022-11-15T10:10:57;13.20;99.90
18581;DHT22;9420;50.876;7.012;2022-11-15T10:13:32;13.20;99.90
18581;DHT22;9420;50.876;7.012;2022-11-15T10:16:07;13.20;99.90
18581;DHT22;9420;50.876;7.012;2022-11-15T10:18:49;13.30;99.90
18581;DHT22;9420;50.876;7.012;2022-11-15T10:21:28;13.40;99.90
18581;DHT22;9420;50.876;7.012;2022-11-15T10:24:10;13.40;99.90
18581;DHT22;9420;50.876;7.012;2022-11-15T10:26:43;13.60;99.90
18581;DHT22;9420;50.876;7.012;2022-11-15T10:29:19;13.70;99.90
18581;DHT22;9420;50.876;7.012;2022-11-15T10:31:46;13.70;99.90
18581;DHT22;9420;50.876;7.012;2022-11-15T10:34:16;13.60;99.90
18581;DHT22;9420;50.876;7.012;2022-11-15T10:36:45;13.70;99.90
18581;DHT22;9420;50.876;7.012;2022-11-15T10:39:20;13.70;99.90
18581;DHT22;9420;50.876;7.012;2022-11-15T10:41:47;13.70;99.90
18581;DHT22;9420;50.876;7.012;2022-11-15T10:44:21;13.90;99.90
18581;DHT22;9420;50.876;7.012;2022-11-15T10:47:06;13.90;99.90
18581;DHT22;9420;50.876;7.012;2022-11-15T10:50:00;14.00;99.90
18581;DHT22;9420;50.876;7.012;2022-11-15T10:52:31;14.00;99.90
18581;DHT22;9420;50.876;7.012;2022-11-15T10:55:03;14.00;99.90
18581;DHT22;9420;50.876;7.012;2022-11-15T10:57:49;14.10;99.90
18581;DHT22;9420;50.876;7.012;2022-11-15T11:00:31;14.20;99.90
18581;DHT22;9420;50.876;7.012;2022-11-15T11:03:03;14.20;99.90
18581;DHT22;9420;50.876;7.012;2022-11-15T11:05:34;14.20;99.90
18581;DHT22;9420;50.876;7.012;2022-11-15T11:08:04;14.20;99.90
18581;DHT22;9420;50.876;7.012;2022-11-15T11:10:52;14.30;99.90
18581;DHT22;9420;50.876;7.012;2022-11-15T11:13:23;14.30;99.90
18581;DHT22;9420;50.876;7.012;2022-11-15T11:18:52;14.50;99.90
18581;DHT22;9420;50.876;7.012;2022-11-15T11:21:30;14.70;99.90
18581;DHT22;9420;50.876;7.012;2022-11-15T11:24:14;14.90;99.90
18581;DHT22;9420;50.876;7.012;2022-11-15T11:27:01;15.00;99.90
18581;DHT22;9420;50.876;7.012;2022-11-15T11:29:57;15.20;99.90
18581;DHT22;9420;50.876;7.012;2022-11-15T11:32:44;15.60;99.90
18581;DHT22;9420;50.876;7.012;2022-11-15T11:35:30;16.80;99.90
18581;DHT22;9420;50.876;7.012;2022-11-15T11:38:11;17.50;99.90
18581;DHT22;9420;50.876;7.012;2022-11-15T11:40:59;17.90;99.90
18581;DHT22;9420;50.876;7.012;2022-11-15T11:43:36;18.00;99.90
18581;DHT22;9420;50.876;7.012;2022-11-15T11:46:20;18.10;99.90
18581;DHT22;9420;50.876;7.012;2022-11-15T11:49:03;18.60;99.90
18581;DHT22;9420;50.876;7.012;2022-11-15T11:51:39;19.40;99.90
18581;DHT22;9420;50.876;7.012;2022-11-15T11:54:13;20.00;99.90
18581;DHT22;9420;50.876;7.012;2022-11-15T11:56:48;19.60;99.90
18581;DHT22;9420;50.876;7.012;2022-11-15T11:59:21;19.40;99.90
18581;DHT22;9420;50.876;7.012;2022-11-15T12:01:54;18.40;99.90
18581;DHT22;9420;50.876;7.012;2022-11-15T12:04:29;17.20;99.90
18581;DHT22;9420;50.876;7.012;2022-11-15T12:07:00;16.70;99.90
18581;DHT22;9420;50.876;7.012;2022-11-15T12:09:33;16.50;99.90
18581;DHT22;9420;50.876;7.012;2022-11-15T12:12:09;16.40;99.90
18581;DHT22;9420;50.876;7.012;2022-11-15T12:14:46;16.50;99.90
18581;DHT22;9420;50.876;7.012;2022-11-15T12:17:23;16.50;99.90
18581;DHT22;9420;50.876;7.012;2022-11-15T12:19:56;16.40;99.90
18581;DHT22;9420;50.876;7.012;2022-11-15T12:22:34;16.20;99.90
18581;DHT22;9420;50.876;7.012;2022-11-15T12:25:13;16.00;99.90
18581;DHT22;9420;50.876;7.012;2022-11-15T12:27:48;15.90;99.90
18581;DHT22;9420;50.876;7.012;2022-11-15T12:30:21;15.80;99.90
18581;DHT22;9420;50.876;7.012;2022-11-15T12:32:52;15.70;99.90
18581;DHT22;9420;50.876;7.012;2022-11-15T12:35:34;15.70;99.90
18581;DHT22;9420;50.876;7.012;2022-11-15T12:38:04;15.50;99.90
18581;DHT22;9420;50.876;7.012;2022-11-15T12:40:34;15.40;99.90
18581;DHT22;9420;50.876;7.012;2022-11-15T12:43:35;15.40;99.90
18581;DHT22;9420;50.876;7.012;2022-11-15T12:46:06;15.30;99.90
18581;DHT22;9420;50.876;7.012;2022-11-15T12:48:53;15.10;99.90
18581;DHT22;9420;50.876;7.012;2022-11-15T12:54:57;15.30;99.90
18581;DHT22;9420;50.876;7.012;2022-11-15T12:57:36;15.50;99.90
18581;DHT22;9420;50.876;7.012;2022-11-15T13:03:33;15.50;99.90
18581;DHT22;9420;50.876;7.012;2022-11-15T13:06:07;15.40;99.90
18581;DHT22;9420;50.876;7.012;2022-11-15T13:08:57;15.30;99.90
18581;DHT22;9420;50.876;7.012;2022-11-15T13:14:46;15.10;99.90
18581;DHT22;9420;50.876;7.012;2022-11-15T13:17:31;15.60;99.90
18581;DHT22;9420;50.876;7.012;2022-11-15T13:20:21;15.60;99.90
18581;DHT22;9420;50.876;7.012;2022-11-15T13:23:00;15.50;99.90
18581;DHT22;9420;50.876;7.012;2022-11-15T13:26:10;15.50;99.90
18581;DHT22;9420;50.876;7.012;2022-11-15T13:28:43;15.40;99.90
18581;DHT22;9420;50.876;7.012;2022-11-15T13:31:29;15.20;99.90
18581;DHT22;9420;50.876;7.012;2022-11-15T13:34:12;15.10;99.90
18581;DHT22;9420;50.876;7.012;2022-11-15T13:36:44;15.00;99.90
18581;DHT22;9420;50.876;7.012;2022-11-15T13:39:28;14.90;99.90
18581;DHT22;9420;50.876;7.012;2022-11-15T13:41:58;14.80;99.90
18581;DHT22;9420;50.876;7.012;2022-11-15T13:44:28;14.70;99.90
18581;DHT22;9420;50.876;7.012;2022-11-15T13:47:05;14.60;99.90
18581;DHT22;9420;50.876;7.012;2022-11-15T13:49:34;14.50;99.90
18581;DHT22;9420;50.876;7.012;2022-11-15T13:52:06;14.50;99.90
18581;DHT22;9420;50.876;7.012;2022-11-15T13:54:36;14.50;99.90
18581;DHT22;9420;50.876;7.012;2022-11-15T13:57:12;14.40;99.90
18581;DHT22;9420;50.876;7.012;2022-11-15T13:59:47;14.40;99.90
18581;DHT22;9420;50.876;7.012;2022-11-15T14:02:18;14.40;99.90
18581;DHT22;9420;50.876;7.012;2022-11-15T14:04:51;14.40;99.90
18581;DHT22;9420;50.876;7.012;2022-11-15T14:07:23;14.30;99.90
18581;DHT22;9420;50.876;7.012;2022-11-15T14:09:54;14.30;99.90
18581;DHT22;9420;50.876;7.012;2022-11-15T14:12:27;14.30;99.90
18581;DHT22;9420;50.876;7.012;2022-11-15T14:14:57;14.20;99.90
18581;DHT22;9420;50.876;7.012;2022-11-15T14:17:36;14.20;99.90
18581;DHT22;9420;50.876;7.012;2022-11-15T14:20:29;14.10;99.90
18581;DHT22;9420;50.876;7.012;2022-11-15T14:23:00;14.00;99.90
18581;DHT22;9420;50.876;7.012;2022-11-15T14:25:30;14.00;99.90
18581;DHT22;9420;50.876;7.012;2022-11-15T14:28:16;14.00;99.90
18581;DHT22;9420;50.876;7.012;2022-11-15T14:30:58;13.90;99.90
18581;DHT22;9420;50.876;7.012;2022-11-15T14:33:28;13.90;99.90
18581;DHT22;9420;50.876;7.012;2022-11-15T14:35:58;13.90;99.90
18581;DHT22;9420;50.876;7.012;2022-11-15T14:38:30;13.80;99.90
18581;DHT22;9420;50.876;7.012;2022-11-15T14:40:58;13.80;99.90
18581;DHT22;9420;50.876;7.012;2022-11-15T14:43:27;13.80;99.90
18581;DHT22;9420;50.876;7.012;2022-11-15T14:45:54;13.80;99.90
18581;DHT22;9420;50.876;7.012;2022-11-15T14:48:21;13.80;99.90
18581;DHT22;9420;50.876;7.012;2022-11-15T14:50:48;13.70;99.90
18581;DHT22;9420;50.876;7.012;2022-11-15T14:53:17;13.70;99.90
18581;DHT22;9420;50.876;7.012;2022-11-15T14:55:45;13.80;99.90
18581;DHT22;9420;50.876;7.012;2022-11-15T14:58:12;13.70;99.90
18581;DHT22;9420;50.876;7.012;2022-11-15T15:00:43;13.60;99.90
18581;DHT22;9420;50.876;7.012;2022-11-15T15:03:10;13.60;99.90
18581;DHT22;9420;50.876;7.012;2022-11-15T15:05:39;13.60;99.90
18581;DHT22;9420;50.876;7.012;2022-11-15T15:08:08;13.50;99.90
18581;DHT22;9420;50.876;7.012;2022-11-15T15:10:38;13.50;99.90
18581;DHT22;9420;50.876;7.012;2022-11-15T15:13:15;13.50;99.90
18581;DHT22;9420;50.876;7.012;2022-11-15T15:15:46;13.50;99.90
18581;DHT22;9420;50.876;7.012;2022-11-15T15:18:14;13.50;99.90
18581;DHT22;9420;50.876;7.012;2022-11-15T15:20:43;13.40;99.90
18581;DHT22;9420;50.876;7.012;2022-11-15T15:23:15;13.40;99.90
18581;DHT22;9420;50.876;7.012;2022-11-15T15:25:44;13.40;99.90
18581;DHT22;9420;50.876;7.012;2022-11-15T15:28:12;13.40;99.90
18581;DHT22;9420;50.876;7.012;2022-11-15T15:30:39;13.30;99.90
18581;DHT22;9420;50.876;7.012;2022-11-15T15:33:08;13.40;99.90
18581;DHT22;9420;50.876;7.012;2022-11-15T15:35:35;13.30;99.90
18581;DHT22;9420;50.876;7.012;2022-11-15T15:38:03;13.30;99.90
18581;DHT22;9420;50.876;7.012;2022-11-15T15:40:32;13.30;99.90
18581;DHT22;9420;50.876;7.012;2022-11-15T15:42:59;13.30;99.90
18581;DHT22;9420;50.876;7.012;2022-11-15T15:45:27;13.20;99.90
18581;DHT22;9420;50.876;7.012;2022-11-15T15:47:55;13.20;99.90
18581;DHT22;9420;50.876;7.012;2022-11-15T15:50:25;13.20;99.90
18581;DHT22;9420;50.876;7.012;2022-11-15T15:52:55;13.20;99.90
18581;DHT22;9420;50.876;7.012;2022-11-15T15:55:24;13.20;99.90
18581;DHT22;9420;50.876;7.012;2022-11-15T15:57:51;13.10;99.90
18581;DHT22;9420;50.876;7.012;2022-11-15T16:00:20;13.10;99.90
18581;DHT22;9420;50.876;7.012;2022-11-15T16:02:50;13.10;99.90
18581;DHT22;9420;50.876;7.012;2022-11-15T16:05:19;13.10;99.90
18581;DHT22;9420;50.876;7.012;2022-11-15T16:07:48;13.10;99.90
18581;DHT22;9420;50.876;7.012;2022-11-15T16:10:21;13.10;99.90
18581;DHT22;9420;50.876;7.012;2022-11-15T16:12:50;13.00;99.90
18581;DHT22;9420;50.876;7.012;2022-11-15T16:15:19;13.10;99.90
18581;DHT22;9420;50.876;7.012;2022-11-15T16:17:50;13.00;99.90
18581;DHT22;9420;50.876;7.012;2022-11-15T16:20:25;13.10;99.90
18581;DHT22;9420;50.876;7.012;2022-11-15T16:22:58;13.00;99.90
18581;DHT22;9420;50.876;7.012;2022-11-15T16:25:25;13.00;99.90
18581;DHT22;9420;50.876;7.012;2022-11-15T16:27:53;13.00;99.90
18581;DHT22;9420;50.876;7.012;2022-11-15T16:30:22;13.00;99.90
18581;DHT22;9420;50.876;7.012;2022-11-15T16:32:49;13.00;99.90
18581;DHT22;9420;50.876;7.012;2022-11-15T16:35:17;13.00;99.90
18581;DHT22;9420;50.876;7.012;2022-11-15T16:37:44;13.00;99.90